Startpagina
METAR-TAF:

METAR-TAF

Vliegvelden :

Internationale luchthaven van Bahrein

Bahrein, Bahrein

breedte: 26-16N, lengte: 050-39E, hoogte: 2 m

Actueel weer

Dit bericht is 22 minuten geleden gemaakt, om 19:30 UTC
Wind 9 kt uit het westnoordwesten
Temperatuur 34°C
Vochtigheid 30%
Druk 1000 hPa
Zicht: 7000 m
Onbewolkt

METAR: OBBI 231930Z 29009KT 7000 SKC 34/14 Q1000 NOSIG

Tijdstip: 22:52 (19:52 UTC)

Verwachting

Dit bericht is 2 uur en het 52 minuten geleden gemaakt, om 17:00 UTC
Verwachting geldig van 23 om 18 UTC tot 25 om 00 UTC
Wind 10 kt uit het westnoordwesten
Zicht: 8000 m
Wijzigt naar
van 24 om 04 UTC tot 24 om 06 UTC
Wind 15 kt uit het noordnoordwesten met uitschieters tot 25 kt
Wijzigt naar
van 24 om 20 UTC tot 24 om 22 UTC
Wind 7 kt uit het westnoordwesten

TAF: OBBI 231700Z 2318/2500 29010KT 8000 NSC BECMG 2404/2406 34015G25KT BECMG 2420/2422 30007KT

Waarnemingen en weersverwachtingen van meer dan 4000 vliegvelden (METAR en TAF).

De beschikbare stations zijn de gele en rode punten op de kaart.

Ga met uw muis naar het station om de naam te zien.

Klik dan om waarnemingen en weersverwachtingen te zien.

kaart wijzigen: klik op de groene knoppen met een zwart kruis om in te zoomen, op de groene knop met een streepje om uit te zoomen of op de groene pijlen voor aangrenzende kaarten.


METAR-TAF: